Forside
METAR-TAF:

METAR-TAF

Lufthavne :

Chisholm-Hibbing Airport

Hibbing, Minnesota, USA

Breddekreds: 47-23-12N, længdekreds: 092-50-20W, højde: 412 m

Aktuelle vejr

Denne rapport blev lavet for 58 minutter siden, kl. 02:53 UTC
Vind 3 kt fra nordvest
Temperatur -20°C
Fugtighed 77%
Tryk 1017 hPa
Sigt: 16.1 km
skyfri

METAR: KHIB 280253Z AUTO 32003KT 10SM CLR M20/M23 A3004 RMK AO2 SLP214 T12001233 58001

Tid: 21:51 (03:51 UTC)

Vejrudsigter

Denne rapport blev lavet for 4 timer og 30 minutter siden, kl. 23:21 UTC
Foreløbig gælder fra 28 på 00 UTC til 28 på 24 UTC
Vind 7 kt fra nordnordvest
Sigt: 10 km
Nogle få skyer i en højde af 25000 ft
Fra 28 på 0200 UTC
Vind 3 kt fra varierende retninger
Sigt: 10 km
Nogle få skyer i en højde af 20000 ft
Fra 28 på 1700 UTC
Vind 7 kt fra nordnordvest
Sigt: 10 km
skyfri

TAF: KHIB 272321Z 2800/2824 33007KT P6SM FEW250 FM280200 VRB03KT P6SM FEW200 FM281700 33007KT P6SM SKC

Vejrobservationer og prognoser fra mere end 4000 lufthavne (METAR og TAF).

De gule og røde prikker repræsenterer de meteorologiske stationer.

Flyt musen over at se navnet på stationen.

Så klik over at se vejr observationer og prognoser.

At skifte det kort: Klik på de grønne knapper med et sort kors for at zoome ind; på den grønne knap med en bindestreg for at zoome ud; eller på de grønne pile for tilstødende kort.


METAR-TAF: